Time;durP1;ratioP1;P1;durP2;ratioP2;P2;SDS_P1;SDS_P2;PMS_P1;PMS_P2;Temp;Humidity;BMP_temperature;BMP_pressure;BME280_temperature;BME280_humidity;BME280_pressure;Samples;Min_cycle;Max_cycle;Signal;HPM_P1;HPM_P2
2021/06/05 00:00:54;;;;;;;5.90;3.15;;;;;;;26.92;29.98;102155.13;5033202;28;20483;-89
2021/06/05 00:03:21;;;;;;;11.68;3.83;;;;;;;26.83;30.33;102151.88;5016123;28;20026;-89
2021/06/05 00:05:49;;;;;;;7.25;3.40;;;;;;;26.71;30.32;102155.00;5016133;28;20056;-89
2021/06/05 00:08:17;;;;;;;8.82;3.35;;;;;;;26.72;30.22;102156.59;5016094;28;20447;-90
2021/06/05 00:10:47;;;;;;;8.10;3.22;;;;;;;26.70;30.53;102159.00;5015989;28;20095;-86
2021/06/05 00:13:17;;;;;;;13.70;3.92;;;;;;;26.61;30.54;102164.16;5016206;28;20033;-89
2021/06/05 00:15:46;;;;;;;10.98;3.85;;;;;;;26.52;30.56;102158.84;5016104;28;20032;-89
2021/06/05 00:18:13;;;;;;;10.23;4.00;;;;;;;26.53;30.36;102161.28;5016013;28;20033;-88
2021/06/05 00:20:40;;;;;;;12.55;5.10;;;;;;;26.50;30.79;102153.63;5012372;28;20042;-90
2021/06/05 00:23:08;;;;;;;12.02;6.78;;;;;;;26.42;30.67;102157.56;5015928;28;20096;-89
2021/06/05 00:25:35;;;;;;;10.00;5.38;;;;;;;26.41;30.66;102150.38;5019144;28;20117;-90
2021/06/05 00:28:01;;;;;;;7.85;4.35;;;;;;;26.38;30.83;102153.13;5020382;28;20422;-87
2021/06/05 00:30:28;;;;;;;14.85;5.32;;;;;;;26.31;30.88;102153.88;5019966;28;20156;-87
2021/06/05 00:32:54;;;;;;;6.40;3.85;;;;;;;26.36;30.73;102145.09;5018673;28;20385;-87
2021/06/05 00:35:21;;;;;;;10.93;3.88;;;;;;;26.29;31.08;102150.63;5019059;28;20026;-88
2021/06/05 00:37:47;;;;;;;11.57;4.38;;;;;;;26.33;30.97;102150.66;5020446;28;20022;-89
2021/06/05 00:40:15;;;;;;;14.75;4.88;;;;;;;26.23;30.94;102146.59;5019885;28;20030;-87
2021/06/05 00:42:40;;;;;;;8.98;3.75;;;;;;;26.16;30.92;102141.72;5020380;28;20404;-87
2021/06/05 00:45:11;;;;;;;8.35;3.80;;;;;;;26.14;30.98;102138.50;5018794;28;20026;-90
2021/06/05 00:47:37;;;;;;;9.88;3.90;;;;;;;26.16;30.87;102129.72;5019065;28;20151;-89
2021/06/05 00:50:04;;;;;;;10.93;3.67;;;;;;;26.09;31.27;102126.84;5019182;28;20022;-84
2021/06/05 00:52:30;;;;;;;8.90;4.63;;;;;;;26.06;30.95;102125.59;5019989;28;20034;-87
2021/06/05 00:54:56;;;;;;;10.23;4.75;;;;;;;25.98;31.09;102126.75;5018408;28;20543;-86
2021/06/05 00:57:22;;;;;;;7.65;3.95;;;;;;;25.86;31.44;102119.44;5018857;28;20037;-86
2021/06/05 00:59:48;;;;;;;12.70;5.35;;;;;;;25.84;31.49;102124.59;5020265;28;20036;-89
2021/06/05 01:02:13;;;;;;;14.18;5.13;;;;;;;25.67;31.64;102122.41;5020087;28;20139;-87
2021/06/05 01:04:40;;;;;;;9.60;4.82;;;;;;;25.63;32.14;102118.78;5018967;28;20057;-88
2021/06/05 01:07:15;;;;;;;11.50;6.05;;;;;;;25.69;32.17;102117.22;5019843;28;20038;-87
2021/06/05 01:09:59;;;;;;;12.60;5.47;;;;;;;25.66;32.19;102121.59;5018962;28;20025;-89
2021/06/05 01:12:52;;;;;;;10.10;5.38;;;;;;;25.66;32.15;102115.19;5019025;28;20033;-89
2021/06/05 01:15:18;;;;;;;11.57;5.18;;;;;;;25.71;31.98;102114.84;5018877;28;20120;-89
2021/06/05 01:17:48;;;;;;;12.82;5.43;;;;;;;25.42;32.44;102108.94;5018842;28;20129;-88
2021/06/05 01:20:29;;;;;;;15.27;5.38;;;;;;;25.54;32.23;102102.25;5018649;28;20050;-87
2021/06/05 01:23:03;;;;;;;12.23;5.55;;;;;;;25.58;32.02;102097.50;5018856;28;20144;-89
2021/06/05 01:25:48;;;;;;;14.60;5.05;;;;;;;25.56;32.15;102101.91;5018628;28;20061;-89
2021/06/05 01:28:30;;;;;;;17.33;5.80;;;;;;;25.56;32.23;102096.31;5019741;28;20030;-89
2021/06/05 01:31:01;;;;;;;12.65;5.68;;;;;;;25.72;32.04;102105.28;5019138;28;20080;-89
2021/06/05 01:33:29;;;;;;;12.52;5.15;;;;;;;25.63;32.01;102105.56;5019989;28;20048;-89
2021/06/05 01:35:54;;;;;;;12.55;5.18;;;;;;;25.37;32.29;102100.88;5015475;28;20057;-89
2021/06/05 01:38:23;;;;;;;14.52;6.03;;;;;;;25.32;32.71;102103.22;5015595;28;20061;-89
2021/06/05 01:40:50;;;;;;;9.55;5.05;;;;;;;25.54;32.25;102104.25;5016723;28;20109;-91
2021/06/05 01:43:20;;;;;;;10.85;4.80;;;;;;;25.35;32.28;102108.84;5015526;28;20029;-89
2021/06/05 01:45:47;;;;;;;10.38;4.70;;;;;;;25.23;32.54;102103.50;5015087;28;20065;-87
2021/06/05 01:48:14;;;;;;;11.95;4.65;;;;;;;25.15;32.56;102102.59;5015421;28;20485;-87
2021/06/05 01:50:43;;;;;;;11.07;4.95;;;;;;;25.11;32.63;102098.16;5015395;28;20053;-89
2021/06/05 01:53:16;;;;;;;11.15;5.13;;;;;;;25.11;32.90;102095.38;5015198;28;20072;-87
2021/06/05 01:55:59;;;;;;;16.58;5.30;;;;;;;25.01;33.00;102099.59;5016407;28;20026;-87
2021/06/05 01:58:30;;;;;;;17.27;5.28;;;;;;;24.98;33.12;102099.56;5014919;28;20021;-90
2021/06/05 02:00:57;;;;;;;9.75;4.40;;;;;;;25.01;33.10;102088.41;5014798;28;20502;-89
2021/06/05 02:03:24;;;;;;;14.57;5.20;;;;;;;25.08;32.63;102093.31;5016290;28;20030;-89
2021/06/05 02:05:51;;;;;;;13.40;5.40;;;;;;;25.04;33.06;102089.69;5015684;28;20034;-88
2021/06/05 02:08:20;;;;;;;9.63;4.78;;;;;;;25.01;33.01;102084.81;5014742;28;20084;-90
2021/06/05 02:10:46;;;;;;;9.45;4.55;;;;;;;25.08;32.80;102088.53;5014731;28;20388;-87
2021/06/05 02:13:20;;;;;;;10.13;4.70;;;;;;;25.07;33.20;102088.91;5015928;28;20437;-87
2021/06/05 02:16:00;;;;;;;13.10;4.40;;;;;;;25.00;33.43;102081.19;5015266;28;20508;-89
2021/06/05 02:18:29;;;;;;;;;;;;;;;24.94;33.33;102090.28;5015397;28;20061;-89
2021/06/05 02:21:01;;;;;;;11.82;4.85;;;;;;;25.03;32.97;102080.50;5014541;28;19917;-89
2021/06/05 02:23:34;;;;;;;13.00;4.75;;;;;;;24.90;33.42;102087.47;5012591;28;20029;-89
2021/06/05 02:26:00;;;;;;;12.55;5.20;;;;;;;24.98;33.24;102088.38;5014851;28;20030;-87
2021/06/05 02:28:27;;;;;;;14.60;5.18;;;;;;;24.90;33.40;102085.47;5014544;28;20026;-89
2021/06/05 02:30:54;;;;;;;10.05;4.72;;;;;;;25.03;33.25;102085.25;5014617;28;20049;-89
2021/06/05 02:33:19;;;;;;;10.27;4.32;;;;;;;24.99;33.41;102081.59;5014654;28;20477;-88
2021/06/05 02:35:47;;;;;;;8.90;4.03;;;;;;;24.86;33.28;102086.59;5014799;28;20026;-87
2021/06/05 02:38:18;;;;;;;12.30;4.80;;;;;;;24.83;33.75;102084.56;5014494;28;20037;-87
2021/06/05 02:40:46;;;;;;;11.85;4.65;;;;;;;24.89;33.59;102088.66;5014257;28;20040;-88
2021/06/05 02:43:16;;;;;;;19.27;5.88;;;;;;;24.88;33.30;102084.25;5014285;28;20034;-87
2021/06/05 02:46:07;;;;;;;14.73;4.40;;;;;;;24.88;33.28;102087.03;5014205;28;20033;-88
2021/06/05 02:48:48;;;;;;;10.10;3.92;;;;;;;24.91;33.47;102072.31;5013519;28;20480;-87
2021/06/05 02:51:14;;;;;;;12.20;4.80;;;;;;;24.98;33.56;102085.56;5030451;28;20041;-87
2021/06/05 02:53:40;;;;;;;12.25;4.68;;;;;;;25.02;33.44;102083.63;5033818;28;20036;-86
2021/06/05 02:56:06;;;;;;;10.52;4.35;;;;;;;25.09;33.43;102078.16;5033922;28;20029;-89
2021/06/05 02:58:33;;;;;;;8.05;3.88;;;;;;;25.10;33.38;102082.56;5033684;28;20025;-89
2021/06/05 03:00:59;;;;;;;13.80;5.63;;;;;;;25.15;33.25;102082.22;5033703;28;20029;-89
2021/06/05 03:03:25;;;;;;;12.75;4.55;;;;;;;25.15;33.49;102077.44;5033640;28;20025;-89
2021/06/05 03:05:52;;;;;;;13.65;4.93;;;;;;;25.08;33.93;102076.53;5033544;28;20033;-88
2021/06/05 03:08:27;;;;;;;9.07;4.35;;;;;;;25.04;33.69;102075.69;5033895;28;20033;-88
2021/06/05 03:10:53;;;;;;;10.18;4.50;;;;;;;25.10;33.43;102080.59;5033786;28;20030;-85
2021/06/05 03:13:20;;;;;;;10.15;4.43;;;;;;;25.11;33.92;102071.00;5033432;28;20501;-87
2021/06/05 03:15:47;;;;;;;12.65;4.50;;;;;;;25.20;33.57;102073.50;5033705;28;20171;-89
2021/06/05 03:18:14;;;;;;;11.18;4.63;;;;;;;25.06;33.82;102074.13;5033717;28;20029;-88
2021/06/05 03:20:43;;;;;;;11.10;4.53;;;;;;;25.05;33.80;102071.72;5033042;28;20107;-88
2021/06/05 03:23:10;;;;;;;16.48;5.13;;;;;;;25.04;34.39;102068.13;5033474;28;20108;-89
2021/06/05 03:25:37;;;;;;;7.85;4.32;;;;;;;25.12;34.28;102066.22;5033439;28;20029;-87
2021/06/05 03:28:04;;;;;;;11.70;4.60;;;;;;;25.14;34.00;102064.63;5033452;28;20033;-89
2021/06/05 03:30:35;;;;;;;12.73;5.00;;;;;;;25.20;34.08;102067.91;5033966;28;20045;-85
2021/06/05 03:33:01;;;;;;;8.98;4.55;;;;;;;25.21;33.95;102074.31;5034401;28;20034;-87
2021/06/05 03:35:27;;;;;;;10.85;5.40;;;;;;;25.21;34.19;102068.72;5033513;28;20095;-89
2021/06/05 03:37:53;;;;;;;14.05;5.13;;;;;;;25.28;34.25;102069.59;5033110;28;20029;-88
2021/06/05 03:40:23;;;;;;;11.57;5.00;;;;;;;25.26;34.27;102068.38;5032687;28;20116;-88
2021/06/05 03:42:48;;;;;;;16.15;6.20;;;;;;;25.28;34.32;102066.81;5049687;28;20037;-89
2021/06/05 03:45:14;;;;;;;9.00;4.90;;;;;;;25.35;34.25;102068.88;5032702;28;20143;-89
2021/06/05 03:47:42;;;;;;;15.80;5.72;;;;;;;25.41;34.19;102070.16;5034297;28;20022;-88
2021/06/05 03:50:10;;;;;;;13.95;5.40;;;;;;;25.43;34.23;102076.97;5033339;28;20018;-90
2021/06/05 03:52:35;;;;;;;15.88;6.55;;;;;;;25.45;34.21;102074.59;5032933;28;20022;-88
2021/06/05 03:55:02;;;;;;;14.90;5.30;;;;;;;25.51;34.09;102074.25;5033259;28;20025;-89
2021/06/05 03:57:27;;;;;;;13.88;5.97;;;;;;;25.54;34.39;102065.88;5033064;28;20017;-90
2021/06/05 03:59:56;;;;;;;13.77;5.68;;;;;;;25.56;34.62;102069.13;5033259;28;20407;-88
2021/06/05 04:02:22;;;;;;;9.60;4.78;;;;;;;25.48;34.61;102067.44;5049983;28;20474;-89
2021/06/05 04:04:48;;;;;;;12.15;5.53;;;;;;;25.54;34.83;102070.66;5034439;28;20028;-89
2021/06/05 04:07:14;;;;;;;13.02;5.90;;;;;;;25.48;35.03;102070.22;5034304;28;20025;-89
2021/06/05 04:09:41;;;;;;;19.42;6.38;;;;;;;25.39;35.65;102076.13;5033050;28;20400;-89
2021/06/05 04:12:07;;;;;;;14.35;6.18;;;;;;;25.45;35.30;102074.59;5033079;28;20028;-89
2021/06/05 04:14:34;;;;;;;13.57;6.68;;;;;;;25.42;35.27;102064.16;5033264;28;20033;-90
2021/06/05 04:16:59;;;;;;;19.23;6.68;;;;;;;25.39;35.80;102069.72;5034351;28;20025;-90
2021/06/05 04:19:25;;;;;;;14.68;5.60;;;;;;;25.50;35.74;102067.84;5036045;28;20138;-89
2021/06/05 04:21:52;;;;;;;11.85;5.70;;;;;;;25.53;35.58;102063.47;5036218;28;20045;-89
2021/06/05 04:24:19;;;;;;;13.45;6.28;;;;;;;25.36;35.95;102070.50;5036236;28;20491;-90
2021/06/05 04:26:45;;;;;;;17.55;6.47;;;;;;;25.35;36.05;102069.69;5036207;28;20376;-89
2021/06/05 04:29:12;;;;;;;14.80;6.35;;;;;;;25.42;35.84;102063.38;5036097;28;20036;-90
2021/06/05 04:31:37;;;;;;;14.55;6.38;;;;;;;25.45;36.19;102068.97;5053950;28;20021;-89
2021/06/05 04:34:03;;;;;;;17.40;5.85;;;;;;;25.56;36.00;102068.31;5053869;28;20032;-89
2021/06/05 04:36:29;;;;;;;13.25;5.50;;;;;;;25.62;35.93;102066.78;5053652;28;20037;-89
2021/06/05 04:38:54;;;;;;;22.58;6.70;;;;;;;25.56;36.26;102065.50;5035958;28;20090;-90
2021/06/05 04:41:21;;;;;;;15.88;6.20;;;;;;;25.53;35.99;102064.28;5053644;28;20025;-89
2021/06/05 04:43:47;;;;;;;15.02;6.80;;;;;;;25.59;35.80;102057.16;5053707;28;20380;-90
2021/06/05 04:46:14;;;;;;;15.00;6.57;;;;;;;25.60;36.03;102055.16;5053858;28;20025;-90
2021/06/05 04:48:41;;;;;;;13.63;5.65;;;;;;;25.59;36.23;102067.53;5035901;28;20056;-89
2021/06/05 04:51:07;;;;;;;13.00;5.68;;;;;;;25.61;36.45;102053.94;5035929;28;20040;-89
2021/06/05 04:53:34;;;;;;;13.07;5.28;;;;;;;25.59;36.38;102056.34;5035535;28;20392;-90
2021/06/05 04:56:00;;;;;;;14.38;6.32;;;;;;;25.69;36.24;102064.84;5053841;28;20092;-90
2021/06/05 04:58:26;;;;;;;16.75;5.40;;;;;;;25.76;36.40;102066.94;5036127;28;20111;-89
2021/06/05 05:00:53;;;;;;;15.55;6.50;;;;;;;25.80;36.07;102059.38;5036137;28;20075;-89
2021/06/05 05:03:23;;;;;;;18.88;5.60;;;;;;;25.88;36.26;102065.84;5035731;28;20037;-89
2021/06/05 05:05:50;;;;;;;15.85;6.43;;;;;;;26.12;36.11;102062.44;5035848;28;20051;-89
2021/06/05 05:08:18;;;;;;;13.85;5.80;;;;;;;26.16;35.96;102071.69;5053761;28;20029;-89
2021/06/05 05:10:47;;;;;;;12.85;6.03;;;;;;;26.08;36.31;102064.44;5037803;28;20383;-90
2021/06/05 05:13:17;;;;;;;12.35;6.13;;;;;;;26.06;36.23;102064.00;5039561;28;20040;-90
2021/06/05 05:15:43;;;;;;;;;;;;;;;26.02;36.50;102067.97;5040347;28;20036;-90
2021/06/05 05:18:08;;;;;;;14.65;5.25;;;;;;;26.06;36.33;102068.78;5056257;28;19913;-89
2021/06/05 05:20:37;;;;;;;14.38;5.10;;;;;;;26.06;36.11;102061.19;5036236;28;20060;-91
2021/06/05 05:23:04;;;;;;;9.90;4.57;;;;;;;26.12;36.31;102067.25;5036052;28;20025;-89
2021/06/05 05:25:30;;;;;;;9.88;4.68;;;;;;;26.10;36.44;102061.25;5037290;28;20091;-90
2021/06/05 05:27:56;;;;;;;11.60;4.65;;;;;;;26.05;36.43;102062.38;5036011;28;20026;-90
2021/06/05 05:30:30;;;;;;;13.05;4.30;;;;;;;25.90;36.87;102067.06;5035931;28;20534;-90
2021/06/05 05:32:56;;;;;;;14.02;5.45;;;;;;;25.94;36.84;102067.91;5035974;28;20029;-90
2021/06/05 05:35:22;;;;;;;13.60;5.93;;;;;;;26.02;36.62;102063.19;5035648;28;20018;-89
2021/06/05 05:37:48;;;;;;;22.10;5.32;;;;;;;26.01;36.40;102055.97;5035541;28;20492;-91
2021/06/05 05:40:15;;;;;;;9.50;5.03;;;;;;;25.91;36.73;102063.06;5036011;28;20120;-91
2021/06/05 05:42:41;;;;;;;12.05;5.18;;;;;;;26.08;36.51;102058.03;5036849;28;20488;-90
2021/06/05 05:45:07;;;;;;;12.93;5.13;;;;;;;26.06;36.49;102068.78;5035709;28;20120;-91
2021/06/05 05:47:33;;;;;;;11.23;5.32;;;;;;;26.16;36.42;102076.50;5035674;28;20032;-89
2021/06/05 05:49:59;;;;;;;15.57;6.72;;;;;;;26.11;36.46;102065.66;5035692;28;20030;-89
2021/06/05 05:52:24;;;;;;;12.43;4.95;;;;;;;26.19;36.33;102078.50;5035642;28;20040;-89
2021/06/05 05:54:50;;;;;;;8.55;5.20;;;;;;;25.95;37.07;102075.13;5052212;28;20142;-87
2021/06/05 05:57:16;;;;;;;16.58;7.07;;;;;;;26.12;36.78;102070.06;5035511;28;20079;-88
2021/06/05 05:59:41;;;;;;;16.67;6.18;;;;;;;26.09;37.16;102082.84;5035578;28;20097;-89
2021/06/05 06:02:07;;;;;;;15.32;5.60;;;;;;;26.22;36.58;102084.16;5035305;28;20063;-90
2021/06/05 06:04:33;;;;;;;14.13;6.03;;;;;;;26.24;36.79;102087.38;5035534;28;20697;-91
2021/06/05 06:06:59;;;;;;;7.97;4.95;;;;;;;26.39;36.62;102091.13;5036394;28;20147;-91
2021/06/05 06:09:24;;;;;;;15.55;6.25;;;;;;;26.31;36.57;102091.44;5036436;28;20061;-90
2021/06/05 06:11:50;;;;;;;12.90;5.03;;;;;;;26.28;37.00;102087.38;5035435;28;20105;-88
2021/06/05 06:14:16;;;;;;;14.75;5.80;;;;;;;26.31;36.71;102097.03;5036412;28;20423;-89
2021/06/05 06:16:42;;;;;;;17.63;6.53;;;;;;;26.27;36.91;102092.19;5051511;28;20033;-89
2021/06/05 06:19:13;;;;;;;16.23;6.07;;;;;;;26.06;37.38;102088.41;5035420;28;20053;-90
2021/06/05 06:21:39;;;;;;;12.38;6.03;;;;;;;26.31;37.09;102089.44;5034250;28;20488;-87
2021/06/05 06:24:05;;;;;;;13.82;6.22;;;;;;;26.34;37.18;102079.44;5034772;28;20033;-86
2021/06/05 06:26:31;;;;;;;16.92;6.32;;;;;;;26.26;37.30;102096.19;5033278;28;20540;-88
2021/06/05 06:29:07;;;;;;;15.98;5.50;;;;;;;26.33;37.27;102094.63;5034126;28;20029;-89
2021/06/05 06:31:33;;;;;;;15.80;7.05;;;;;;;26.31;36.88;102088.63;5034041;28;20052;-88
2021/06/05 06:33:59;;;;;;;11.68;5.80;;;;;;;26.41;37.11;102088.72;5049287;28;20029;-89
2021/06/05 06:36:26;;;;;;;15.52;6.15;;;;;;;26.48;36.96;102091.56;5033433;28;20029;-84
2021/06/05 06:38:51;;;;;;;15.07;5.90;;;;;;;26.55;37.17;102088.81;5032424;28;20040;-89
2021/06/05 06:41:27;;;;;;;10.15;5.47;;;;;;;26.45;37.31;102097.13;5032469;28;20033;-86
2021/06/05 06:43:54;;;;;;;17.52;6.50;;;;;;;26.58;36.94;102095.63;5021379;28;20044;-90
2021/06/05 06:46:24;;;;;;;17.65;6.43;;;;;;;26.55;37.40;102102.84;5034504;28;20026;-88
2021/06/05 06:48:54;;;;;;;11.93;5.57;;;;;;;26.78;37.12;102094.16;5034031;28;20038;-88
2021/06/05 06:51:22;;;;;;;14.57;6.07;;;;;;;26.92;36.72;102089.84;5033872;28;20061;-86
2021/06/05 06:53:48;;;;;;;11.48;6.00;;;;;;;27.00;36.37;102089.47;5032485;28;20017;-86
2021/06/05 06:56:14;;;;;;;17.85;6.85;;;;;;;27.19;36.08;102087.56;5032961;28;20068;-88
2021/06/05 06:58:40;;;;;;;15.63;6.03;;;;;;;27.12;36.39;102079.91;5031306;28;20435;-85
2021/06/05 07:01:07;;;;;;;16.75;5.72;;;;;;;27.20;36.51;102094.78;5031723;28;20022;-82
2021/06/05 07:03:33;;;;;;;13.05;6.85;;;;;;;27.28;36.19;102079.56;5031158;28;20021;-89
2021/06/05 07:05:59;;;;;;;15.40;6.10;;;;;;;27.27;36.09;102084.38;5032203;28;20022;-87
2021/06/05 07:08:31;;;;;;;20.38;6.75;;;;;;;26.93;36.75;102077.41;5033532;28;20629;-86
2021/06/05 07:11:00;;;;;;;26.55;7.43;;;;;;;27.01;36.98;102082.66;5033914;28;20029;-87
2021/06/05 07:13:26;;;;;;;33.08;9.48;;;;;;;26.96;36.80;102079.44;5033923;28;20040;-88
2021/06/05 07:15:54;;;;;;;21.73;8.15;;;;;;;27.24;36.43;102081.59;5033951;28;20036;-88
2021/06/05 07:18:21;;;;;;;17.55;6.18;;;;;;;27.17;36.58;102067.53;5032643;28;20388;-88
2021/06/05 07:20:49;;;;;;;12.07;5.13;;;;;;;27.22;36.32;102079.19;5032695;28;20634;-87
2021/06/05 07:23:16;;;;;;;16.50;5.50;;;;;;;27.32;36.11;102078.41;5032432;28;20033;-90
2021/06/05 07:25:42;;;;;;;23.38;5.78;;;;;;;27.37;36.11;102083.63;5034683;28;20383;-84
2021/06/05 07:28:24;;;;;;;26.63;6.55;;;;;;;27.60;36.06;102085.31;5033714;28;20025;-89
2021/06/05 07:30:51;;;;;;;22.80;6.60;;;;;;;27.64;35.75;102084.09;5033862;28;20121;-89
2021/06/05 07:33:17;;;;;;;19.00;6.07;;;;;;;27.55;35.96;102082.88;5030170;28;20440;-89
2021/06/05 07:35:43;;;;;;;13.50;5.15;;;;;;;27.58;35.74;102079.25;5030814;28;20028;-89
2021/06/05 07:38:12;;;;;;;16.40;5.53;;;;;;;27.52;35.98;102076.06;5026865;28;20476;-94
2021/06/05 07:40:38;;;;;;;20.27;6.75;;;;;;;27.53;36.07;102088.09;5024718;28;20372;-89
2021/06/05 07:43:05;;;;;;;11.32;5.38;;;;;;;27.41;36.36;102085.63;5032488;28;20026;-91
2021/06/05 07:45:31;;;;;;;16.17;4.55;;;;;;;27.49;36.35;102074.03;5032576;28;20376;-90
2021/06/05 07:47:56;;;;;;;18.08;6.03;;;;;;;27.55;35.96;102080.88;5032706;28;20025;-91
2021/06/05 07:50:22;;;;;;;9.23;4.32;;;;;;;27.50;35.97;102075.63;5032772;28;20037;-89
2021/06/05 07:52:48;;;;;;;14.80;5.85;;;;;;;27.50;36.40;102075.63;5033842;28;20033;-89
2021/06/05 07:55:14;;;;;;;30.48;7.90;;;;;;;27.67;35.97;102068.50;5032402;28;20216;-89
2021/06/05 07:57:40;;;;;;;13.25;4.95;;;;;;;27.51;36.19;102074.47;5028774;28;20017;-86
2021/06/05 08:00:15;;;;;;;23.60;6.28;;;;;;;27.44;36.42;102074.44;5030044;28;20495;-92
2021/06/05 08:02:41;;;;;;;8.50;4.32;;;;;;;27.46;36.30;102072.03;5031397;28;20045;-91
2021/06/05 08:05:08;;;;;;;8.48;4.03;;;;;;;27.53;36.02;102071.25;5031015;28;20038;-91
2021/06/05 08:07:34;;;;;;;22.02;5.53;;;;;;;27.81;35.66;102070.50;5031918;28;20030;-91
2021/06/05 08:09:59;;;;;;;9.57;3.97;;;;;;;27.67;35.89;102070.47;5031111;28;20116;-92
2021/06/05 08:12:25;;;;;;;13.65;4.10;;;;;;;27.78;35.62;102063.69;5032207;28;20070;-90
2021/06/05 08:14:51;;;;;;;12.48;4.75;;;;;;;27.99;35.25;102062.91;5030319;28;20026;-88
2021/06/05 08:17:17;;;;;;;11.38;4.50;;;;;;;28.00;35.49;102061.69;5031006;28;20057;-87
2021/06/05 08:19:42;;;;;;;10.35;4.40;;;;;;;28.11;35.29;102059.69;5027743;28;20057;-92
2021/06/05 08:22:09;;;;;;;23.13;6.93;;;;;;;28.33;34.88;102068.13;5032370;28;20041;-94
2021/06/05 08:24:34;;;;;;;5.68;3.63;;;;;;;28.24;35.27;102064.88;5030430;28;20030;-87
2021/06/05 08:27:00;;;;;;;6.00;3.00;;;;;;;28.09;35.49;102062.09;5025722;28;20459;-73
2021/06/05 08:29:26;;;;;;;10.05;4.43;;;;;;;28.30;34.99;102057.69;5025639;28;20155;-78
2021/06/05 08:31:51;;;;;;;7.28;4.00;;;;;;;28.34;35.13;102058.47;5021885;28;20041;-77
2021/06/05 08:34:19;;;;;;;9.15;3.50;;;;;;;28.24;34.97;102053.66;5027710;28;20029;-78
2021/06/05 08:36:45;;;;;;;7.22;3.20;;;;;;;28.41;34.82;102056.44;5029422;28;20629;-77
2021/06/05 08:39:12;;;;;;;12.73;4.32;;;;;;;28.60;34.51;102063.66;5026962;28;20032;-81
2021/06/05 08:41:39;;;;;;;9.82;3.63;;;;;;;28.30;35.13;102052.06;5026794;28;20492;-76
2021/06/05 08:44:13;;;;;;;12.25;4.13;;;;;;;28.35;34.50;102060.91;5027529;28;20080;-74
2021/06/05 08:46:45;;;;;;;7.28;3.45;;;;;;;28.37;34.52;102057.69;5029116;28;20484;-78
2021/06/05 08:49:26;;;;;;;12.38;4.70;;;;;;;28.54;34.31;102068.09;5032310;28;20040;-76
2021/06/05 08:52:06;;;;;;;8.77;4.35;;;;;;;28.56;34.08;102060.03;5029481;28;20043;-76
2021/06/05 08:55:00;;;;;;;13.18;4.97;;;;;;;28.48;34.76;102064.06;5032735;28;20105;-76
2021/06/05 08:57:56;;;;;;;12.15;4.32;;;;;;;28.98;34.16;102063.97;5031145;28;20092;-78
2021/06/05 09:00:33;;;;;;;8.15;4.13;;;;;;;29.04;34.18;102056.72;5032580;28;20064;-78
2021/06/05 09:03:02;;;;;;;12.32;4.93;;;;;;;29.00;34.28;102061.53;5030311;28;20045;-78
2021/06/05 09:05:36;;;;;;;11.95;4.78;;;;;;;29.23;33.90;102056.19;5031561;28;20025;-80
2021/06/05 09:08:03;;;;;;;6.00;3.60;;;;;;;29.18;33.91;102053.03;5030373;28;20025;-78
2021/06/05 09:10:30;;;;;;;9.82;4.68;;;;;;;29.27;33.44;102045.72;5031591;28;20055;-74
2021/06/05 09:12:56;;;;;;;18.23;6.43;;;;;;;29.43;33.29;102045.22;5030689;28;20072;-75
2021/06/05 09:15:29;;;;;;;17.85;6.82;;;;;;;29.15;33.49;102051.00;5031490;28;20045;-73
2021/06/05 09:17:59;;;;;;;9.80;4.55;;;;;;;29.40;33.14;102048.09;5031375;28;20037;-81
2021/06/05 09:20:39;;;;;;;19.88;5.70;;;;;;;29.54;33.25;102040.34;5035770;28;20684;-74
2021/06/05 09:23:35;;;;;;;10.60;4.50;;;;;;;29.74;33.27;102045.44;5046993;28;20041;-75
2021/06/05 09:26:26;;;;;;;9.13;4.20;;;;;;;29.30;33.22;102047.72;5034291;28;20043;-74
2021/06/05 09:29:18;;;;;;;10.50;4.88;;;;;;;29.38;33.05;102036.41;5048190;28;20043;-75
2021/06/05 09:32:12;;;;;;;11.90;4.45;;;;;;;29.59;32.91;102032.69;5050033;28;20502;-76
2021/06/05 09:34:40;;;;;;;8.30;3.58;;;;;;;29.59;32.83;102041.13;5037680;28;20029;-76
2021/06/05 09:37:24;;;;;;;13.63;5.07;;;;;;;29.95;32.57;102042.47;5047330;28;20039;-75
2021/06/05 09:40:14;;;;;;;10.02;4.60;;;;;;;29.92;32.29;102039.66;5031779;28;20031;-75
2021/06/05 09:42:43;;;;;;;13.65;5.40;;;;;;;29.87;32.22;102045.75;5045553;28;20037;-74
2021/06/05 09:45:40;;;;;;;13.80;4.88;;;;;;;29.83;32.26;102046.56;5048553;28;20033;-81
2021/06/05 09:48:24;;;;;;;11.30;5.07;;;;;;;29.54;32.59;102045.97;5018037;28;20040;-79
2021/06/05 09:50:53;;;;;;;10.75;5.07;;;;;;;29.71;32.31;102049.09;5030928;28;20128;-75
2021/06/05 09:53:30;;;;;;;15.65;6.22;;;;;;;29.81;32.23;102049.00;5049411;28;20484;-78
2021/06/05 09:56:01;;;;;;;16.80;5.10;;;;;;;29.68;32.33;102044.28;5045591;28;20032;-76
2021/06/05 09:58:35;;;;;;;9.80;4.60;;;;;;;29.69;32.19;102046.69;5048571;28;20037;-79
2021/06/05 10:01:22;;;;;;;12.70;5.03;;;;;;;29.84;32.10;102055.81;5047909;28;20029;-79
2021/06/05 10:03:50;;;;;;;16.92;5.43;;;;;;;30.07;32.11;102049.59;5048562;28;20380;-76
2021/06/05 10:06:36;;;;;;;12.73;3.55;;;;;;;30.16;32.31;102055.59;5048712;28;20033;-76
2021/06/05 10:09:24;;;;;;;16.45;4.20;;;;;;;30.09;32.30;102041.56;5047958;28;20139;-78
2021/06/05 10:11:56;;;;;;;11.30;2.88;;;;;;;30.21;32.08;102057.16;5049509;28;20029;-76
2021/06/05 10:14:40;;;;;;;8.52;3.63;;;;;;;30.03;32.10;102048.84;5049909;28;20037;-76
2021/06/05 10:17:15;;;;;;;12.10;3.67;;;;;;;30.08;31.79;102054.88;5049707;28;20021;-75
2021/06/05 10:19:53;;;;;;;18.63;4.50;;;;;;;30.09;31.85;102052.84;5028160;28;20127;-73
2021/06/05 10:22:20;;;;;;;11.88;3.08;;;;;;;30.08;31.83;102052.03;5049380;28;20471;-76
2021/06/05 10:25:03;;;;;;;9.05;3.13;;;;;;;29.88;32.24;102053.00;5031585;28;20449;-75
2021/06/05 10:27:37;;;;;;;11.52;3.15;;;;;;;29.47;32.97;102048.00;5034425;28;20082;-75
2021/06/05 10:30:25;;;;;;;7.20;2.60;;;;;;;29.24;33.01;102045.72;5049962;28;20028;-81
2021/06/05 10:32:51;;;;;;;11.15;3.13;;;;;;;29.57;32.71;102044.38;5048077;28;20045;-79
2021/06/05 10:35:25;;;;;;;7.28;3.03;;;;;;;29.70;33.61;102036.22;5050821;28;20028;-75
2021/06/05 10:37:52;;;;;;;5.65;3.28;;;;;;;29.99;33.16;102042.41;5047912;28;20029;-76
2021/06/05 10:40:22;;;;;;;12.10;4.43;;;;;;;29.91;33.53;102041.69;5051049;28;20061;-73
2021/06/05 10:42:53;;;;;;;11.30;3.83;;;;;;;29.78;33.67;102046.22;5050111;28;20505;-75
2021/06/05 10:45:33;;;;;;;18.23;4.47;;;;;;;29.70;33.24;102044.66;5050188;28;20375;-74
2021/06/05 10:48:08;;;;;;;7.97;3.28;;;;;;;29.86;33.15;102050.59;5048091;28;20089;-82
2021/06/05 10:50:38;;;;;;;16.00;4.65;;;;;;;29.92;32.65;102040.47;5048573;28;20138;-76
2021/06/05 10:53:10;;;;;;;;;;;;;;;29.69;33.04;102038.22;5048870;28;20057;-84
2021/06/05 10:55:44;;;;;;;23.10;4.95;;;;;;;30.35;32.53;102037.28;5050288;28;20313;-83
2021/06/05 10:58:33;;;;;;;12.98;4.15;;;;;;;30.77;31.38;102035.22;5048191;28;20037;-76
2021/06/05 11:01:09;;;;;;;11.02;4.07;;;;;;;30.89;31.54;102034.66;5048919;28;20021;-75
2021/06/05 11:03:38;;;;;;;11.40;3.53;;;;;;;31.23;31.29;102028.22;5048146;28;20112;-79
2021/06/05 11:06:26;;;;;;;11.02;3.38;;;;;;;31.07;31.50;102032.41;5035807;28;20074;-81
2021/06/05 11:09:29;;;;;;;8.13;3.75;;;;;;;31.41;30.99;102035.19;5052298;28;20037;-79
2021/06/05 11:12:00;;;;;;;13.23;4.20;;;;;;;31.46;31.10;102023.41;5053383;28;20511;-83
2021/06/05 11:14:37;;;;;;;7.95;3.30;;;;;;;31.11;31.33;102026.72;5053585;28;20424;-79
2021/06/05 11:17:11;;;;;;;15.23;5.18;;;;;;;31.10;31.62;102025.91;5053270;28;20490;-79
2021/06/05 11:19:48;;;;;;;21.65;5.45;;;;;;;31.00;31.47;102023.25;5052686;28;20112;-82
2021/06/05 11:22:15;;;;;;;12.93;4.40;;;;;;;30.93;31.73;102029.78;5052991;28;20114;-81
2021/06/05 11:25:05;;;;;;;18.48;4.88;;;;;;;31.23;31.08;102023.34;5052958;28;20025;-78
2021/06/05 11:27:36;;;;;;;15.70;5.20;;;;;;;31.07;31.56;102031.63;5053187;28;20059;-76
2021/06/05 11:30:22;;;;;;;13.75;4.57;;;;;;;30.65;31.54;102030.91;5053407;28;20032;-83
2021/06/05 11:32:58;;;;;;;12.32;4.95;;;;;;;30.85;31.05;102026.25;5039209;28;20055;-76